Ever Decent — 9V7952 — position and weather

sailwx.info

Track history (hours):
 
Tides and Currents Weather Stations Pressure Air Temp Water Temp Dewpoint Dewpoint Depression Visibility Wind Speed Wind Dir Waves Ship Positions

Ever Decent

Last reported at 2016-May-23 00:00 UTC. Time now 2016-May-24 23:34 UTC.
Position N 14°12' W 096°24'.

Length 294 m; draft 11.1 m.

Type: Ship (hazmat cat D). MMSI: 564904000.

Wind from 230 at 10 knots

Waves 1.0 meters (3 feet), 13 second period

Barometer 1009.0 mb
Air temperature 31.0 ° C
Visibility: greater than 10.8 NM
Dewpoint 27.1 ° C
Water temperature 27.0 ° C

Date/timePositionNaut miles runAvg speedWind from/ knotsBaromVisibWave heightAir tempDewpointWater temp
2016-May-23 00:00N 14°12' W 096°24'67016.0 230 / 101009.010.8 1.031.027.127.0
2016-May-21 06:00N 09°12' W 086°12'38610.5 260 / 121011.010.8 1.028.026.729.0
2016-May-19 17:11N 09°05' W 079°41'5 6.6
2016-May-19 16:22N 09°07' W 079°46'5 6.1
2016-May-19 15:33N 09°10' W 079°50'7 7.0
2016-May-19 14:34N 09°14' W 079°55'2 1.9
2016-May-19 13:33N 09°16' W 079°55'0 0.4
2016-May-19 12:33N 09°17' W 079°55'1 0.9
2016-May-19 11:33N 09°18' W 079°55'4 4.4
2016-May-19 10:33N 09°22' W 079°55'5 5.5
2016-May-19 09:33N 09°27' W 079°54'2 2.0
2016-May-19 08:28N 09°28' W 079°51'0 0.0
2016-May-19 07:31N 09°28' W 079°51'0 0.0
2016-May-19 06:22N 09°28' W 079°51'0 0.0
2016-May-19 04:31N 09°28' W 079°51'0 0.2
2016-May-19 03:31N 09°28' W 079°52'0 0.2
2016-May-19 02:31N 09°28' W 079°51'0 0.0
2016-May-19 01:31N 09°28' W 079°51'0 0.1
2016-May-19 00:31N 09°28' W 079°51'0 0.0
2016-May-18 23:31N 09°28' W 079°51'0 0.1
2016-May-18 22:28N 09°28' W 079°51'0 0.1
2016-May-18 21:22N 09°28' W 079°52'0 0.1
2016-May-18 20:31N 09°28' W 079°52'0 0.0
2016-May-18 19:10N 09°28' W 079°52'0 0.1
2016-May-18 18:31N 09°28' W 079°52'3 2.7
2016-May-18 17:33N 09°26' W 079°53'3 3.0
2016-May-18 16:32N 09°22' W 079°53'0 0.0
2016-May-18 15:32N 09°22' W 079°53'0 0.0
2016-May-18 14:32N 09°22' W 079°53'0 0.0
2016-May-18 13:32N 09°22' W 079°53'0 0.0
2016-May-18 12:32N 09°22' W 079°53'0 0.0
2016-May-18 11:32N 09°22' W 079°53'0 0.0
2016-May-18 10:32N 09°22' W 079°53'0 0.0
2016-May-18 09:32N 09°22' W 079°53'0 0.0
2016-May-18 08:29N 09°22' W 079°53'0 0.0
2016-May-18 07:32N 09°22' W 079°53'0 0.0
2016-May-18 06:32N 09°22' W 079°53'0 0.0
2016-May-18 05:32N 09°22' W 079°53'0 0.0
2016-May-18 04:32N 09°22' W 079°53'0 0.0
2016-May-18 03:32N 09°22' W 079°53'0 0.0
2016-May-18 02:32N 09°22' W 079°53'0 0.0
2016-May-18 01:29N 09°22' W 079°53'0 0.0
2016-May-18 00:32N 09°22' W 079°53'0 0.0
2016-May-17 23:32N 09°22' W 079°53'0 0.0
2016-May-17 22:33N 09°22' W 079°53'5 4.8
2016-May-17 21:33N 09°27' W 079°53'1413.9
2016-May-17 20:33N 09°41' W 079°50'1616.2
2016-May-17 19:33N 09°55' W 079°42'49313.1
2016-May-16 06:00N 17°06' W 075°36'36215.1 080 / 201016.0 5.4 1.527.027.025.0
2016-May-15 06:00N 22°42' W 073°12'37015.4 130 / 211016.0 5.4 1.027.025.725.0
2016-May-14 06:00N 28°48' W 072°12'   1017.010.8 1.024.022.622.0
Track history (hours):
 
Tides and Currents Weather Stations Pressure Air Temp Water Temp Dewpoint Dewpoint Depression Visibility Wind Speed Wind Dir Waves Ship Positions

Ever Decent

Last reported at 2016-May-23 00:00 UTC. Time now 2016-May-24 23:34 UTC.
Position N 14°12' W 096°24'.

Length 294 m; draft 11.1 m.

Type: Ship (hazmat cat D). MMSI: 564904000.

Wind from 230 at 10 knots

Waves 1.0 meters (3 feet), 13 second period

Barometer 1009.0 mb
Air temperature 31.0 ° C
Visibility: greater than 10.8 NM
Dewpoint 27.1 ° C
Water temperature 27.0 ° C

Date/timePositionNaut miles runAvg speedWind from/ knotsBaromVisibWave heightAir tempDewpointWater temp
2016-May-23 00:00N 14°12' W 096°24'67016.0 230 / 101009.010.8 1.031.027.127.0
2016-May-21 06:00N 09°12' W 086°12'38610.5 260 / 121011.010.8 1.028.026.729.0
2016-May-19 17:11N 09°05' W 079°41'5 6.6
2016-May-19 16:22N 09°07' W 079°46'5 6.1
2016-May-19 15:33N 09°10' W 079°50'7 7.0
2016-May-19 14:34N 09°14' W 079°55'2 1.9
2016-May-19 13:33N 09°16' W 079°55'0 0.4
2016-May-19 12:33N 09°17' W 079°55'1 0.9
2016-May-19 11:33N 09°18' W 079°55'4 4.4
2016-May-19 10:33N 09°22' W 079°55'5 5.5
2016-May-19 09:33N 09°27' W 079°54'2 2.0
2016-May-19 08:28N 09°28' W 079°51'0 0.0
2016-May-19 07:31N 09°28' W 079°51'0 0.0
2016-May-19 06:22N 09°28' W 079°51'0 0.0
2016-May-19 04:31N 09°28' W 079°51'0 0.2
2016-May-19 03:31N 09°28' W 079°52'0 0.2
2016-May-19 02:31N 09°28' W 079°51'0 0.0
2016-May-19 01:31N 09°28' W 079°51'0 0.1
2016-May-19 00:31N 09°28' W 079°51'0 0.0
2016-May-18 23:31N 09°28' W 079°51'0 0.1
2016-May-18 22:28N 09°28' W 079°51'0 0.1
2016-May-18 21:22N 09°28' W 079°52'0 0.1
2016-May-18 20:31N 09°28' W 079°52'0 0.0
2016-May-18 19:10N 09°28' W 079°52'0 0.1
2016-May-18 18:31N 09°28' W 079°52'3 2.7
2016-May-18 17:33N 09°26' W 079°53'3 3.0
2016-May-18 16:32N 09°22' W 079°53'0 0.0
2016-May-18 15:32N 09°22' W 079°53'0 0.0
2016-May-18 14:32N 09°22' W 079°53'0 0.0
2016-May-18 13:32N 09°22' W 079°53'0 0.0
2016-May-18 12:32N 09°22' W 079°53'0 0.0
2016-May-18 11:32N 09°22' W 079°53'0 0.0
2016-May-18 10:32N 09°22' W 079°53'0 0.0
2016-May-18 09:32N 09°22' W 079°53'0 0.0
2016-May-18 08:29N 09°22' W 079°53'0 0.0
2016-May-18 07:32N 09°22' W 079°53'0 0.0
2016-May-18 06:32N 09°22' W 079°53'0 0.0
2016-May-18 05:32N 09°22' W 079°53'0 0.0
2016-May-18 04:32N 09°22' W 079°53'0 0.0
2016-May-18 03:32N 09°22' W 079°53'0 0.0
2016-May-18 02:32N 09°22' W 079°53'0 0.0
2016-May-18 01:29N 09°22' W 079°53'0 0.0
2016-May-18 00:32N 09°22' W 079°53'0 0.0
2016-May-17 23:32N 09°22' W 079°53'0 0.0
2016-May-17 22:33N 09°22' W 079°53'5 4.8
2016-May-17 21:33N 09°27' W 079°53'1413.9
2016-May-17 20:33N 09°41' W 079°50'1616.2
2016-May-17 19:33N 09°55' W 079°42'49313.1
2016-May-16 06:00N 17°06' W 075°36'36215.1 080 / 201016.0 5.4 1.527.027.025.0
2016-May-15 06:00N 22°42' W 073°12'37015.4 130 / 211016.0 5.4 1.027.025.725.0
2016-May-14 06:00N 28°48' W 072°12'   1017.010.8 1.024.022.622.0

Dump ship's entire track history